sensor_id;sensor_type;location;lat;lon;timestamp;P1;durP1;ratioP1;P2;durP2;ratioP2
32407;SDS011;18869;55.970;37.502;2023-11-19T00:01:36;39.33;;;21.70;;
32407;SDS011;18869;55.970;37.502;2023-11-19T00:04:04;33.07;;;20.87;;
32407;SDS011;18869;55.970;37.502;2023-11-19T00:06:31;39.60;;;23.10;;
32407;SDS011;18869;55.970;37.502;2023-11-19T00:08:58;43.07;;;22.50;;
32407;SDS011;18869;55.970;37.502;2023-11-19T00:11:27;39.77;;;21.10;;
32407;SDS011;18869;55.970;37.502;2023-11-19T00:13:54;39.70;;;22.00;;
32407;SDS011;18869;55.970;37.502;2023-11-19T00:16:21;35.90;;;21.90;;
32407;SDS011;18869;55.970;37.502;2023-11-19T00:18:48;33.63;;;21.27;;
32407;SDS011;18869;55.970;37.502;2023-11-19T00:21:16;38.60;;;22.43;;
32407;SDS011;18869;55.970;37.502;2023-11-19T00:23:42;36.27;;;21.50;;
32407;SDS011;18869;55.970;37.502;2023-11-19T00:26:10;39.43;;;21.30;;
32407;SDS011;18869;55.970;37.502;2023-11-19T00:28:40;33.47;;;19.43;;
32407;SDS011;18869;55.970;37.502;2023-11-19T00:31:06;37.00;;;21.47;;
32407;SDS011;18869;55.970;37.502;2023-11-19T00:33:34;40.57;;;22.70;;
32407;SDS011;18869;55.970;37.502;2023-11-19T00:36:02;40.13;;;20.47;;
32407;SDS011;18869;55.970;37.502;2023-11-19T00:38:29;33.93;;;19.47;;
32407;SDS011;18869;55.970;37.502;2023-11-19T00:40:57;33.67;;;20.47;;
32407;SDS011;18869;55.970;37.502;2023-11-19T00:43:24;35.80;;;20.00;;
32407;SDS011;18869;55.970;37.502;2023-11-19T00:45:53;46.50;;;21.53;;
32407;SDS011;18869;55.970;37.502;2023-11-19T00:48:20;45.30;;;20.33;;
32407;SDS011;18869;55.970;37.502;2023-11-19T00:50:47;35.43;;;20.20;;
32407;SDS011;18869;55.970;37.502;2023-11-19T00:53:14;40.87;;;20.13;;
32407;SDS011;18869;55.970;37.502;2023-11-19T00:55:42;40.50;;;20.57;;
32407;SDS011;18869;55.970;37.502;2023-11-19T00:58:08;39.20;;;19.73;;
32407;SDS011;18869;55.970;37.502;2023-11-19T01:00:36;35.47;;;19.97;;
32407;SDS011;18869;55.970;37.502;2023-11-19T01:03:04;32.23;;;19.00;;
32407;SDS011;18869;55.970;37.502;2023-11-19T01:05:33;33.13;;;18.37;;
32407;SDS011;18869;55.970;37.502;2023-11-19T01:08:00;39.63;;;19.53;;
32407;SDS011;18869;55.970;37.502;2023-11-19T01:10:27;29.23;;;19.20;;
32407;SDS011;18869;55.970;37.502;2023-11-19T01:12:54;33.27;;;18.43;;
32407;SDS011;18869;55.970;37.502;2023-11-19T01:15:21;29.03;;;17.97;;
32407;SDS011;18869;55.970;37.502;2023-11-19T01:17:49;31.67;;;20.13;;
32407;SDS011;18869;55.970;37.502;2023-11-19T01:20:17;36.30;;;20.13;;
32407;SDS011;18869;55.970;37.502;2023-11-19T01:22:44;35.87;;;19.83;;
32407;SDS011;18869;55.970;37.502;2023-11-19T01:25:11;36.53;;;19.70;;
32407;SDS011;18869;55.970;37.502;2023-11-19T01:27:39;35.90;;;19.63;;
32407;SDS011;18869;55.970;37.502;2023-11-19T01:30:06;31.17;;;18.83;;
32407;SDS011;18869;55.970;37.502;2023-11-19T01:32:59;36.13;;;19.77;;
32407;SDS011;18869;55.970;37.502;2023-11-19T01:35:40;29.27;;;19.50;;
32407;SDS011;18869;55.970;37.502;2023-11-19T01:38:29;39.73;;;20.40;;
32407;SDS011;18869;55.970;37.502;2023-11-19T01:40:59;35.27;;;18.73;;
32407;SDS011;18869;55.970;37.502;2023-11-19T01:43:32;33.17;;;17.50;;
32407;SDS011;18869;55.970;37.502;2023-11-19T01:46:09;34.77;;;19.20;;
32407;SDS011;18869;55.970;37.502;2023-11-19T01:48:37;29.23;;;18.83;;
32407;SDS011;18869;55.970;37.502;2023-11-19T01:51:07;35.03;;;18.97;;
32407;SDS011;18869;55.970;37.502;2023-11-19T01:53:37;37.83;;;20.20;;
32407;SDS011;18869;55.970;37.502;2023-11-19T01:56:15;41.30;;;19.83;;
32407;SDS011;18869;55.970;37.502;2023-11-19T01:58:56;35.40;;;19.60;;
32407;SDS011;18869;55.970;37.502;2023-11-19T02:01:30;37.67;;;21.20;;
32407;SDS011;18869;55.970;37.502;2023-11-19T02:04:10;37.93;;;21.23;;
32407;SDS011;18869;55.970;37.502;2023-11-19T02:06:40;42.27;;;22.80;;
32407;SDS011;18869;55.970;37.502;2023-11-19T02:09:10;40.33;;;21.47;;
32407;SDS011;18869;55.970;37.502;2023-11-19T02:11:41;38.33;;;20.40;;
32407;SDS011;18869;55.970;37.502;2023-11-19T02:14:09;34.10;;;19.80;;
32407;SDS011;18869;55.970;37.502;2023-11-19T02:16:39;43.90;;;19.90;;
32407;SDS011;18869;55.970;37.502;2023-11-19T02:19:20;37.43;;;20.63;;
32407;SDS011;18869;55.970;37.502;2023-11-19T02:22:04;33.20;;;19.90;;
32407;SDS011;18869;55.970;37.502;2023-11-19T02:24:31;42.33;;;19.83;;
32407;SDS011;18869;55.970;37.502;2023-11-19T02:27:02;43.03;;;20.67;;
32407;SDS011;18869;55.970;37.502;2023-11-19T02:29:34;37.70;;;20.00;;
32407;SDS011;18869;55.970;37.502;2023-11-19T02:32:02;38.57;;;21.30;;
32407;SDS011;18869;55.970;37.502;2023-11-19T02:34:29;39.67;;;21.17;;
32407;SDS011;18869;55.970;37.502;2023-11-19T02:36:57;37.37;;;20.50;;
32407;SDS011;18869;55.970;37.502;2023-11-19T02:39:24;37.83;;;19.87;;
32407;SDS011;18869;55.970;37.502;2023-11-19T02:41:58;36.87;;;19.30;;
32407;SDS011;18869;55.970;37.502;2023-11-19T02:44:30;39.90;;;21.10;;
32407;SDS011;18869;55.970;37.502;2023-11-19T02:47:02;38.57;;;21.23;;
32407;SDS011;18869;55.970;37.502;2023-11-19T02:49:34;42.07;;;20.20;;
32407;SDS011;18869;55.970;37.502;2023-11-19T02:52:04;39.47;;;20.37;;
32407;SDS011;18869;55.970;37.502;2023-11-19T02:54:42;40.23;;;21.00;;
32407;SDS011;18869;55.970;37.502;2023-11-19T02:57:19;34.40;;;20.17;;
32407;SDS011;18869;55.970;37.502;2023-11-19T02:59:52;37.57;;;19.77;;
32407;SDS011;18869;55.970;37.502;2023-11-19T03:02:27;36.67;;;20.77;;
32407;SDS011;18869;55.970;37.502;2023-11-19T03:05:14;43.07;;;22.67;;
32407;SDS011;18869;55.970;37.502;2023-11-19T03:08:00;33.70;;;19.83;;
32407;SDS011;18869;55.970;37.502;2023-11-19T03:10:48;30.93;;;18.77;;
32407;SDS011;18869;55.970;37.502;2023-11-19T03:13:34;36.47;;;20.23;;
32407;SDS011;18869;55.970;37.502;2023-11-19T03:16:06;42.63;;;21.33;;
32407;SDS011;18869;55.970;37.502;2023-11-19T03:18:41;40.30;;;20.57;;
32407;SDS011;18869;55.970;37.502;2023-11-19T03:21:13;34.23;;;21.23;;
32407;SDS011;18869;55.970;37.502;2023-11-19T03:23:58;43.77;;;20.90;;
32407;SDS011;18869;55.970;37.502;2023-11-19T03:26:29;40.60;;;22.13;;
32407;SDS011;18869;55.970;37.502;2023-11-19T03:29:00;43.40;;;22.60;;
32407;SDS011;18869;55.970;37.502;2023-11-19T03:31:59;41.37;;;21.97;;
32407;SDS011;18869;55.970;37.502;2023-11-19T03:34:46;40.93;;;20.87;;
32407;SDS011;18869;55.970;37.502;2023-11-19T03:37:24;30.87;;;20.37;;
32407;SDS011;18869;55.970;37.502;2023-11-19T03:39:53;36.17;;;20.30;;
32407;SDS011;18869;55.970;37.502;2023-11-19T03:42:21;35.60;;;21.13;;
32407;SDS011;18869;55.970;37.502;2023-11-19T03:44:48;42.97;;;22.40;;
32407;SDS011;18869;55.970;37.502;2023-11-19T03:47:16;47.07;;;22.70;;
32407;SDS011;18869;55.970;37.502;2023-11-19T03:49:47;34.50;;;20.73;;
32407;SDS011;18869;55.970;37.502;2023-11-19T03:52:15;44.03;;;23.37;;
32407;SDS011;18869;55.970;37.502;2023-11-19T03:54:43;40.83;;;22.23;;
32407;SDS011;18869;55.970;37.502;2023-11-19T03:57:11;42.23;;;24.27;;
32407;SDS011;18869;55.970;37.502;2023-11-19T03:59:39;45.80;;;21.80;;
32407;SDS011;18869;55.970;37.502;2023-11-19T04:02:06;38.63;;;21.93;;
32407;SDS011;18869;55.970;37.502;2023-11-19T04:04:34;41.93;;;22.17;;
32407;SDS011;18869;55.970;37.502;2023-11-19T04:07:01;42.30;;;20.73;;
32407;SDS011;18869;55.970;37.502;2023-11-19T04:09:29;40.30;;;22.70;;
32407;SDS011;18869;55.970;37.502;2023-11-19T04:11:56;46.37;;;23.90;;
32407;SDS011;18869;55.970;37.502;2023-11-19T04:14:23;39.53;;;22.47;;
32407;SDS011;18869;55.970;37.502;2023-11-19T04:16:50;36.30;;;22.33;;
32407;SDS011;18869;55.970;37.502;2023-11-19T04:19:18;43.37;;;23.23;;
32407;SDS011;18869;55.970;37.502;2023-11-19T04:21:46;42.70;;;23.23;;
32407;SDS011;18869;55.970;37.502;2023-11-19T04:24:13;43.57;;;22.63;;
32407;SDS011;18869;55.970;37.502;2023-11-19T04:26:41;35.30;;;21.60;;
32407;SDS011;18869;55.970;37.502;2023-11-19T04:29:11;41.10;;;22.37;;
32407;SDS011;18869;55.970;37.502;2023-11-19T04:31:38;44.07;;;22.80;;
32407;SDS011;18869;55.970;37.502;2023-11-19T04:34:06;51.37;;;27.23;;
32407;SDS011;18869;55.970;37.502;2023-11-19T04:36:35;42.10;;;23.70;;
32407;SDS011;18869;55.970;37.502;2023-11-19T04:39:03;48.97;;;24.53;;
32407;SDS011;18869;55.970;37.502;2023-11-19T04:41:35;40.50;;;22.77;;
32407;SDS011;18869;55.970;37.502;2023-11-19T04:44:03;40.03;;;21.70;;
32407;SDS011;18869;55.970;37.502;2023-11-19T04:46:29;41.60;;;23.97;;
32407;SDS011;18869;55.970;37.502;2023-11-19T04:48:57;53.73;;;22.70;;
32407;SDS011;18869;55.970;37.502;2023-11-19T04:51:23;45.13;;;22.87;;
32407;SDS011;18869;55.970;37.502;2023-11-19T04:53:50;44.47;;;24.33;;
32407;SDS011;18869;55.970;37.502;2023-11-19T04:56:17;34.87;;;21.73;;
32407;SDS011;18869;55.970;37.502;2023-11-19T04:58:46;36.90;;;21.63;;
32407;SDS011;18869;55.970;37.502;2023-11-19T05:01:13;34.67;;;21.47;;
32407;SDS011;18869;55.970;37.502;2023-11-19T05:03:42;36.27;;;22.33;;
32407;SDS011;18869;55.970;37.502;2023-11-19T05:06:08;41.17;;;21.63;;
32407;SDS011;18869;55.970;37.502;2023-11-19T05:08:38;38.87;;;22.00;;
32407;SDS011;18869;55.970;37.502;2023-11-19T05:11:05;38.70;;;22.50;;
32407;SDS011;18869;55.970;37.502;2023-11-19T05:13:32;49.03;;;22.77;;
32407;SDS011;18869;55.970;37.502;2023-11-19T05:16:00;39.60;;;21.43;;
32407;SDS011;18869;55.970;37.502;2023-11-19T05:18:30;43.23;;;21.30;;
32407;SDS011;18869;55.970;37.502;2023-11-19T05:20:56;41.40;;;22.83;;
32407;SDS011;18869;55.970;37.502;2023-11-19T05:23:23;37.80;;;21.57;;
32407;SDS011;18869;55.970;37.502;2023-11-19T05:25:50;45.33;;;22.33;;
32407;SDS011;18869;55.970;37.502;2023-11-19T05:28:17;38.67;;;21.97;;
32407;SDS011;18869;55.970;37.502;2023-11-19T05:30:45;42.53;;;22.77;;
32407;SDS011;18869;55.970;37.502;2023-11-19T05:33:14;43.37;;;24.10;;
32407;SDS011;18869;55.970;37.502;2023-11-19T05:35:40;36.87;;;22.93;;
32407;SDS011;18869;55.970;37.502;2023-11-19T05:38:08;40.53;;;23.67;;
32407;SDS011;18869;55.970;37.502;2023-11-19T05:40:36;43.60;;;22.67;;
32407;SDS011;18869;55.970;37.502;2023-11-19T05:43:05;33.93;;;20.67;;
32407;SDS011;18869;55.970;37.502;2023-11-19T05:45:32;41.43;;;23.97;;
32407;SDS011;18869;55.970;37.502;2023-11-19T05:47:59;41.27;;;22.83;;
32407;SDS011;18869;55.970;37.502;2023-11-19T05:50:30;42.27;;;22.90;;
32407;SDS011;18869;55.970;37.502;2023-11-19T05:52:58;38.37;;;20.90;;
32407;SDS011;18869;55.970;37.502;2023-11-19T05:55:25;40.27;;;23.17;;
32407;SDS011;18869;55.970;37.502;2023-11-19T05:57:54;33.53;;;21.97;;
32407;SDS011;18869;55.970;37.502;2023-11-19T06:00:21;41.13;;;22.93;;
32407;SDS011;18869;55.970;37.502;2023-11-19T06:02:48;32.47;;;20.87;;
32407;SDS011;18869;55.970;37.502;2023-11-19T06:05:15;39.87;;;20.90;;
32407;SDS011;18869;55.970;37.502;2023-11-19T06:07:42;41.13;;;22.10;;
32407;SDS011;18869;55.970;37.502;2023-11-19T06:10:09;35.70;;;21.03;;
32407;SDS011;18869;55.970;37.502;2023-11-19T06:12:39;35.60;;;20.93;;
32407;SDS011;18869;55.970;37.502;2023-11-19T06:15:07;38.33;;;20.87;;
32407;SDS011;18869;55.970;37.502;2023-11-19T06:17:37;37.67;;;20.67;;
32407;SDS011;18869;55.970;37.502;2023-11-19T06:20:04;32.53;;;20.50;;
32407;SDS011;18869;55.970;37.502;2023-11-19T06:22:33;37.47;;;22.37;;
32407;SDS011;18869;55.970;37.502;2023-11-19T06:25:02;40.13;;;23.87;;
32407;SDS011;18869;55.970;37.502;2023-11-19T06:27:33;33.40;;;21.80;;
32407;SDS011;18869;55.970;37.502;2023-11-19T06:29:59;41.83;;;21.40;;
32407;SDS011;18869;55.970;37.502;2023-11-19T06:32:27;33.23;;;21.77;;
32407;SDS011;18869;55.970;37.502;2023-11-19T06:34:54;35.40;;;21.30;;
32407;SDS011;18869;55.970;37.502;2023-11-19T06:37:22;38.40;;;21.53;;
32407;SDS011;18869;55.970;37.502;2023-11-19T06:39:49;38.93;;;22.43;;
32407;SDS011;18869;55.970;37.502;2023-11-19T06:42:17;37.63;;;20.90;;
32407;SDS011;18869;55.970;37.502;2023-11-19T06:44:43;41.73;;;22.80;;
32407;SDS011;18869;55.970;37.502;2023-11-19T06:47:11;32.13;;;20.17;;
32407;SDS011;18869;55.970;37.502;2023-11-19T06:49:38;40.00;;;21.87;;
32407;SDS011;18869;55.970;37.502;2023-11-19T06:52:05;29.30;;;18.83;;
32407;SDS011;18869;55.970;37.502;2023-11-19T06:54:32;30.40;;;18.90;;
32407;SDS011;18869;55.970;37.502;2023-11-19T06:56:59;33.97;;;21.13;;
32407;SDS011;18869;55.970;37.502;2023-11-19T06:59:27;32.37;;;20.00;;
32407;SDS011;18869;55.970;37.502;2023-11-19T07:01:55;33.70;;;21.17;;
32407;SDS011;18869;55.970;37.502;2023-11-19T07:04:22;31.57;;;20.77;;
32407;SDS011;18869;55.970;37.502;2023-11-19T07:06:48;27.80;;;18.67;;
32407;SDS011;18869;55.970;37.502;2023-11-19T07:09:16;26.83;;;19.93;;
32407;SDS011;18869;55.970;37.502;2023-11-19T07:11:44;32.83;;;19.50;;
32407;SDS011;18869;55.970;37.502;2023-11-19T07:14:12;31.33;;;19.93;;
32407;SDS011;18869;55.970;37.502;2023-11-19T07:16:41;30.00;;;18.97;;
32407;SDS011;18869;55.970;37.502;2023-11-19T07:19:07;25.70;;;17.63;;
32407;SDS011;18869;55.970;37.502;2023-11-19T07:21:35;32.57;;;20.00;;
32407;SDS011;18869;55.970;37.502;2023-11-19T07:24:05;26.87;;;18.63;;
32407;SDS011;18869;55.970;37.502;2023-11-19T07:26:33;26.13;;;19.00;;
32407;SDS011;18869;55.970;37.502;2023-11-19T07:29:00;24.27;;;16.53;;
32407;SDS011;18869;55.970;37.502;2023-11-19T07:31:28;21.17;;;16.07;;
32407;SDS011;18869;55.970;37.502;2023-11-19T07:33:59;25.77;;;15.97;;
32407;SDS011;18869;55.970;37.502;2023-11-19T07:36:26;25.10;;;15.77;;
32407;SDS011;18869;55.970;37.502;2023-11-19T07:38:53;22.67;;;15.10;;
32407;SDS011;18869;55.970;37.502;2023-11-19T07:41:23;26.73;;;15.33;;
32407;SDS011;18869;55.970;37.502;2023-11-19T07:43:51;19.00;;;15.77;;
32407;SDS011;18869;55.970;37.502;2023-11-19T07:46:23;22.40;;;15.67;;
32407;SDS011;18869;55.970;37.502;2023-11-19T07:48:51;24.63;;;14.77;;
32407;SDS011;18869;55.970;37.502;2023-11-19T07:51:20;29.53;;;17.13;;
32407;SDS011;18869;55.970;37.502;2023-11-19T07:53:47;26.00;;;17.50;;
32407;SDS011;18869;55.970;37.502;2023-11-19T07:56:15;21.93;;;12.90;;
32407;SDS011;18869;55.970;37.502;2023-11-19T07:58:42;19.93;;;13.43;;
32407;SDS011;18869;55.970;37.502;2023-11-19T08:01:09;24.07;;;15.00;;
32407;SDS011;18869;55.970;37.502;2023-11-19T08:03:36;17.73;;;13.27;;
32407;SDS011;18869;55.970;37.502;2023-11-19T08:06:04;19.93;;;13.67;;
32407;SDS011;18869;55.970;37.502;2023-11-19T08:08:33;25.30;;;12.97;;
32407;SDS011;18869;55.970;37.502;2023-11-19T08:11:01;18.00;;;12.77;;
32407;SDS011;18869;55.970;37.502;2023-11-19T08:13:28;19.87;;;13.70;;
32407;SDS011;18869;55.970;37.502;2023-11-19T08:15:56;26.47;;;12.93;;
32407;SDS011;18869;55.970;37.502;2023-11-19T08:18:24;17.53;;;12.20;;
32407;SDS011;18869;55.970;37.502;2023-11-19T08:20:51;12.73;;;11.37;;
32407;SDS011;18869;55.970;37.502;2023-11-19T08:23:19;15.47;;;11.17;;
32407;SDS011;18869;55.970;37.502;2023-11-19T08:25:48;15.20;;;10.47;;
32407;SDS011;18869;55.970;37.502;2023-11-19T08:28:15;17.70;;;12.63;;
32407;SDS011;18869;55.970;37.502;2023-11-19T08:30:42;15.73;;;11.90;;
32407;SDS011;18869;55.970;37.502;2023-11-19T08:33:10;17.00;;;12.30;;
32407;SDS011;18869;55.970;37.502;2023-11-19T08:35:37;16.43;;;11.23;;
32407;SDS011;18869;55.970;37.502;2023-11-19T08:38:04;20.07;;;12.97;;
32407;SDS011;18869;55.970;37.502;2023-11-19T08:40:32;13.53;;;10.57;;
32407;SDS011;18869;55.970;37.502;2023-11-19T08:43:00;39.87;;;20.27;;
32407;SDS011;18869;55.970;37.502;2023-11-19T08:45:27;21.17;;;13.40;;
32407;SDS011;18869;55.970;37.502;2023-11-19T08:47:55;33.47;;;16.37;;
32407;SDS011;18869;55.970;37.502;2023-11-19T08:50:22;35.20;;;17.97;;
32407;SDS011;18869;55.970;37.502;2023-11-19T08:52:49;15.30;;;11.77;;
32407;SDS011;18869;55.970;37.502;2023-11-19T08:55:16;13.80;;;10.67;;
32407;SDS011;18869;55.970;37.502;2023-11-19T08:57:44;14.60;;;12.17;;
32407;SDS011;18869;55.970;37.502;2023-11-19T09:00:12;44.60;;;23.23;;
32407;SDS011;18869;55.970;37.502;2023-11-19T09:02:43;25.30;;;14.40;;
32407;SDS011;18869;55.970;37.502;2023-11-19T09:05:10;39.50;;;18.10;;
32407;SDS011;18869;55.970;37.502;2023-11-19T09:07:38;74.80;;;35.07;;
32407;SDS011;18869;55.970;37.502;2023-11-19T09:10:06;99.13;;;43.23;;
32407;SDS011;18869;55.970;37.502;2023-11-19T09:12:34;44.53;;;24.10;;
32407;SDS011;18869;55.970;37.502;2023-11-19T09:15:01;39.47;;;20.43;;
32407;SDS011;18869;55.970;37.502;2023-11-19T09:17:35;17.97;;;12.60;;
32407;SDS011;18869;55.970;37.502;2023-11-19T09:20:03;19.37;;;11.90;;
32407;SDS011;18869;55.970;37.502;2023-11-19T09:22:31;15.27;;;11.53;;
32407;SDS011;18869;55.970;37.502;2023-11-19T09:24:58;25.33;;;21.23;;
32407;SDS011;18869;55.970;37.502;2023-11-19T09:27:26;15.70;;;11.50;;
32407;SDS011;18869;55.970;37.502;2023-11-19T09:29:52;20.10;;;14.63;;
32407;SDS011;18869;55.970;37.502;2023-11-19T09:32:23;12.47;;;10.47;;
32407;SDS011;18869;55.970;37.502;2023-11-19T09:34:51;23.23;;;15.83;;
32407;SDS011;18869;55.970;37.502;2023-11-19T09:37:18;30.87;;;20.17;;
32407;SDS011;18869;55.970;37.502;2023-11-19T09:39:46;31.60;;;18.33;;
32407;SDS011;18869;55.970;37.502;2023-11-19T09:42:12;16.17;;;11.97;;
32407;SDS011;18869;55.970;37.502;2023-11-19T09:44:39;19.13;;;11.40;;
32407;SDS011;18869;55.970;37.502;2023-11-19T09:47:08;13.93;;;12.13;;
32407;SDS011;18869;55.970;37.502;2023-11-19T09:49:37;20.93;;;13.27;;
32407;SDS011;18869;55.970;37.502;2023-11-19T09:52:05;17.13;;;9.80;;
32407;SDS011;18869;55.970;37.502;2023-11-19T09:54:33;10.07;;;8.67;;
32407;SDS011;18869;55.970;37.502;2023-11-19T09:57:01;22.10;;;10.97;;
32407;SDS011;18869;55.970;37.502;2023-11-19T09:59:29;15.17;;;10.97;;
32407;SDS011;18869;55.970;37.502;2023-11-19T10:01:57;12.00;;;10.70;;
32407;SDS011;18869;55.970;37.502;2023-11-19T10:04:26;14.87;;;9.77;;
32407;SDS011;18869;55.970;37.502;2023-11-19T10:06:56;18.73;;;10.03;;
32407;SDS011;18869;55.970;37.502;2023-11-19T10:09:23;13.47;;;9.93;;
32407;SDS011;18869;55.970;37.502;2023-11-19T10:11:51;12.30;;;9.77;;
32407;SDS011;18869;55.970;37.502;2023-11-19T10:14:18;10.53;;;9.00;;
32407;SDS011;18869;55.970;37.502;2023-11-19T10:16:47;17.30;;;9.37;;
32407;SDS011;18869;55.970;37.502;2023-11-19T10:19:18;21.50;;;10.07;;
32407;SDS011;18869;55.970;37.502;2023-11-19T10:21:48;17.13;;;10.00;;
32407;SDS011;18869;55.970;37.502;2023-11-19T10:24:16;17.17;;;9.60;;
32407;SDS011;18869;55.970;37.502;2023-11-19T10:26:59;21.47;;;13.30;;
32407;SDS011;18869;55.970;37.502;2023-11-19T10:29:27;23.83;;;13.27;;
32407;SDS011;18869;55.970;37.502;2023-11-19T10:31:56;26.37;;;15.13;;
32407;SDS011;18869;55.970;37.502;2023-11-19T10:34:26;27.50;;;16.83;;
32407;SDS011;18869;55.970;37.502;2023-11-19T10:36:56;23.47;;;16.40;;
32407;SDS011;18869;55.970;37.502;2023-11-19T10:39:23;28.03;;;17.10;;
32407;SDS011;18869;55.970;37.502;2023-11-19T10:41:54;27.13;;;16.07;;
32407;SDS011;18869;55.970;37.502;2023-11-19T10:44:30;23.10;;;15.83;;
32407;SDS011;18869;55.970;37.502;2023-11-19T10:47:02;22.03;;;15.63;;
32407;SDS011;18869;55.970;37.502;2023-11-19T10:49:35;31.63;;;17.73;;
32407;SDS011;18869;55.970;37.502;2023-11-19T10:52:02;26.67;;;17.03;;
32407;SDS011;18869;55.970;37.502;2023-11-19T10:54:30;25.13;;;16.97;;
32407;SDS011;18869;55.970;37.502;2023-11-19T10:56:59;23.23;;;17.47;;
32407;SDS011;18869;55.970;37.502;2023-11-19T10:59:29;30.60;;;17.27;;
32407;SDS011;18869;55.970;37.502;2023-11-19T11:01:57;28.77;;;17.53;;
32407;SDS011;18869;55.970;37.502;2023-11-19T11:04:25;32.83;;;16.33;;
32407;SDS011;18869;55.970;37.502;2023-11-19T11:06:54;30.23;;;16.53;;
32407;SDS011;18869;55.970;37.502;2023-11-19T11:09:22;23.43;;;15.47;;
32407;SDS011;18869;55.970;37.502;2023-11-19T11:11:49;29.53;;;19.07;;
32407;SDS011;18869;55.970;37.502;2023-11-19T11:14:17;27.80;;;21.17;;
32407;SDS011;18869;55.970;37.502;2023-11-19T11:16:46;28.70;;;19.60;;
32407;SDS011;18869;55.970;37.502;2023-11-19T11:19:13;32.50;;;20.37;;
32407;SDS011;18869;55.970;37.502;2023-11-19T11:21:42;28.17;;;20.70;;
32407;SDS011;18869;55.970;37.502;2023-11-19T11:27:04;32.33;;;21.90;;
32407;SDS011;18869;55.970;37.502;2023-11-19T11:29:51;29.53;;;18.47;;
32407;SDS011;18869;55.970;37.502;2023-11-19T11:32:27;32.70;;;21.33;;
32407;SDS011;18869;55.970;37.502;2023-11-19T11:38:00;27.10;;;19.57;;
32407;SDS011;18869;55.970;37.502;2023-11-19T11:40:30;33.67;;;20.17;;
32407;SDS011;18869;55.970;37.502;2023-11-19T11:42:58;26.00;;;18.17;;
32407;SDS011;18869;55.970;37.502;2023-11-19T11:45:36;30.90;;;19.03;;
32407;SDS011;18869;55.970;37.502;2023-11-19T11:48:09;27.83;;;18.17;;
32407;SDS011;18869;55.970;37.502;2023-11-19T11:50:47;34.30;;;18.67;;
32407;SDS011;18869;55.970;37.502;2023-11-19T11:53:16;29.03;;;19.90;;
32407;SDS011;18869;55.970;37.502;2023-11-19T11:55:52;25.87;;;18.10;;
32407;SDS011;18869;55.970;37.502;2023-11-19T11:58:25;31.37;;;19.53;;
32407;SDS011;18869;55.970;37.502;2023-11-19T12:00:54;25.20;;;18.23;;
32407;SDS011;18869;55.970;37.502;2023-11-19T12:03:21;33.73;;;18.87;;
32407;SDS011;18869;55.970;37.502;2023-11-19T12:05:49;23.00;;;18.33;;
32407;SDS011;18869;55.970;37.502;2023-11-19T12:08:19;29.63;;;18.50;;
32407;SDS011;18869;55.970;37.502;2023-11-19T12:10:48;29.30;;;19.30;;
32407;SDS011;18869;55.970;37.502;2023-11-19T12:13:17;32.07;;;19.03;;
32407;SDS011;18869;55.970;37.502;2023-11-19T12:18:35;26.60;;;17.77;;
32407;SDS011;18869;55.970;37.502;2023-11-19T12:21:27;29.33;;;19.10;;
32407;SDS011;18869;55.970;37.502;2023-11-19T12:23:55;26.93;;;18.23;;
32407;SDS011;18869;55.970;37.502;2023-11-19T12:26:36;26.97;;;17.80;;
32407;SDS011;18869;55.970;37.502;2023-11-19T12:29:04;29.77;;;18.93;;
32407;SDS011;18869;55.970;37.502;2023-11-19T12:31:33;28.07;;;17.87;;
32407;SDS011;18869;55.970;37.502;2023-11-19T12:34:07;25.80;;;18.17;;
32407;SDS011;18869;55.970;37.502;2023-11-19T12:36:38;32.10;;;19.73;;
32407;SDS011;18869;55.970;37.502;2023-11-19T12:39:07;29.73;;;18.43;;
32407;SDS011;18869;55.970;37.502;2023-11-19T12:41:49;29.73;;;19.90;;
32407;SDS011;18869;55.970;37.502;2023-11-19T12:44:18;28.57;;;18.93;;
32407;SDS011;18869;55.970;37.502;2023-11-19T12:46:46;25.50;;;17.57;;
32407;SDS011;18869;55.970;37.502;2023-11-19T12:49:13;26.13;;;19.53;;
32407;SDS011;18869;55.970;37.502;2023-11-19T12:51:40;30.83;;;19.77;;
32407;SDS011;18869;55.970;37.502;2023-11-19T12:54:08;28.00;;;19.23;;
32407;SDS011;18869;55.970;37.502;2023-11-19T12:56:36;32.03;;;18.17;;
32407;SDS011;18869;55.970;37.502;2023-11-19T13:02:51;25.93;;;19.13;;
32407;SDS011;18869;55.970;37.502;2023-11-19T13:05:23;26.80;;;18.80;;
32407;SDS011;18869;55.970;37.502;2023-11-19T13:07:57;26.80;;;18.23;;
32407;SDS011;18869;55.970;37.502;2023-11-19T13:10:25;28.27;;;19.17;;
32407;SDS011;18869;55.970;37.502;2023-11-19T13:13:02;31.33;;;20.90;;
32407;SDS011;18869;55.970;37.502;2023-11-19T13:15:31;25.30;;;18.90;;
32407;SDS011;18869;55.970;37.502;2023-11-19T13:17:59;31.30;;;20.30;;
32407;SDS011;18869;55.970;37.502;2023-11-19T13:20:26;31.90;;;20.10;;
32407;SDS011;18869;55.970;37.502;2023-11-19T13:22:55;32.17;;;20.67;;
32407;SDS011;18869;55.970;37.502;2023-11-19T13:25:23;27.37;;;19.80;;
32407;SDS011;18869;55.970;37.502;2023-11-19T13:31:37;33.40;;;18.50;;
32407;SDS011;18869;55.970;37.502;2023-11-19T13:34:05;29.57;;;19.37;;
32407;SDS011;18869;55.970;37.502;2023-11-19T13:36:33;32.73;;;20.77;;
32407;SDS011;18869;55.970;37.502;2023-11-19T13:39:01;36.47;;;17.13;;
32407;SDS011;18869;55.970;37.502;2023-11-19T13:41:28;28.73;;;16.17;;
32407;SDS011;18869;55.970;37.502;2023-11-19T13:43:56;28.87;;;17.67;;
32407;SDS011;18869;55.970;37.502;2023-11-19T13:46:24;26.23;;;18.03;;
32407;SDS011;18869;55.970;37.502;2023-11-19T13:48:51;25.03;;;16.03;;
32407;SDS011;18869;55.970;37.502;2023-11-19T13:51:25;26.07;;;16.23;;
32407;SDS011;18869;55.970;37.502;2023-11-19T13:53:55;28.00;;;16.73;;
32407;SDS011;18869;55.970;37.502;2023-11-19T13:56:22;27.47;;;18.73;;
32407;SDS011;18869;55.970;37.502;2023-11-19T13:58:49;29.43;;;16.63;;
32407;SDS011;18869;55.970;37.502;2023-11-19T14:01:16;26.37;;;17.20;;
32407;SDS011;18869;55.970;37.502;2023-11-19T14:03:44;27.00;;;17.07;;
32407;SDS011;18869;55.970;37.502;2023-11-19T14:06:11;24.53;;;17.23;;
32407;SDS011;18869;55.970;37.502;2023-11-19T14:08:39;25.43;;;18.17;;
32407;SDS011;18869;55.970;37.502;2023-11-19T14:11:07;27.10;;;18.03;;
32407;SDS011;18869;55.970;37.502;2023-11-19T14:13:35;31.77;;;18.73;;
32407;SDS011;18869;55.970;37.502;2023-11-19T14:16:02;32.33;;;17.83;;
32407;SDS011;18869;55.970;37.502;2023-11-19T14:18:45;33.00;;;17.53;;
32407;SDS011;18869;55.970;37.502;2023-11-19T14:21:14;30.13;;;17.57;;
32407;SDS011;18869;55.970;37.502;2023-11-19T14:23:45;23.47;;;15.77;;
32407;SDS011;18869;55.970;37.502;2023-11-19T14:26:12;28.83;;;18.40;;
32407;SDS011;18869;55.970;37.502;2023-11-19T14:28:39;22.83;;;15.70;;
32407;SDS011;18869;55.970;37.502;2023-11-19T14:31:06;26.87;;;17.50;;
32407;SDS011;18869;55.970;37.502;2023-11-19T14:33:33;23.43;;;16.10;;
32407;SDS011;18869;55.970;37.502;2023-11-19T14:36:01;28.60;;;18.63;;
32407;SDS011;18869;55.970;37.502;2023-11-19T14:38:39;28.37;;;18.20;;